ZSMUL FZEA-FCOI

Flight info

Callsign ZSMUL
Flight time 0h 45m
Altitude 12000
Route DESE1A VONIP
Aircraft DC6/M-SDFGRWY/S

Departure

Time 2026-05-06 20:04
Airport Mbandaka Airport (FZEA)

Arrival

Time 2026-05-06 20:49
Airport Impfondo Airport (FCOI)
Time Latitude Longitude Altitude Speed Heading
2026-05-06 19:40 0.02105 18.29033 1036 ft 0 kts 263°
2026-05-06 19:52 0.02106 18.29047 1036 ft 4 kts 287°
2026-05-06 19:52 0.02105 18.29054 1042 ft 0 kts 324°
2026-05-06 19:56 0.02106 18.29053 1042 ft 1 kts 319°
2026-05-06 19:56 0.02113 18.29048 1042 ft 1 kts 322°
2026-05-06 19:56 0.02116 18.29046 1042 ft 0 kts 318°
2026-05-06 19:57 0.02123 18.29039 1042 ft 3 kts 316°
2026-05-06 19:57 0.02134 18.29007 1043 ft 7 kts 270°
2026-05-06 19:57 0.02126 18.28939 1042 ft 11 kts 263°
2026-05-06 19:58 0.02131 18.28902 1042 ft 5 kts 310°
2026-05-06 19:58 0.02156 18.28889 1043 ft 5 kts 343°
2026-05-06 19:58 0.02203 18.28881 1044 ft 9 kts 352°
2026-05-06 19:58 0.02276 18.28872 1046 ft 12 kts 353°
2026-05-06 19:59 0.02372 18.28860 1049 ft 15 kts 354°
2026-05-06 19:59 0.02493 18.28847 1050 ft 20 kts 353°
2026-05-06 19:59 0.02636 18.28829 1048 ft 20 kts 353°
2026-05-06 19:59 0.02756 18.28815 1049 ft 15 kts 354°
2026-05-06 20:00 0.02842 18.28805 1051 ft 10 kts 354°
2026-05-06 20:00 0.02899 18.28798 1051 ft 8 kts 353°
2026-05-06 20:00 0.02966 18.28790 1051 ft 11 kts 354°
2026-05-06 20:00 0.03059 18.28780 1050 ft 15 kts 359°
2026-05-06 20:01 0.03170 18.28778 1050 ft 15 kts 359°
2026-05-06 20:01 0.03197 18.28772 1050 ft 1 kts 281°
2026-05-06 20:01 0.03195 18.28766 1050 ft 1 kts 219°
2026-05-06 20:01 0.03186 18.28765 1050 ft 2 kts 176°
2026-05-06 20:02 0.03128 18.28772 1049 ft 23 kts 173°
2026-05-06 20:02 0.02836 18.28805 1048 ft 61 kts 173°
2026-05-06 20:02 0.02298 18.28868 1047 ft 94 kts 173°
2026-05-06 20:02 0.01565 18.28963 1067 ft 114 kts 172°
2026-05-06 20:03 0.00749 18.29066 1166 ft 120 kts 171°
2026-05-06 20:03 -0.00086 18.29180 1326 ft 121 kts 170°
2026-05-06 20:03 -0.00939 18.29321 1458 ft 126 kts 169°
2026-05-06 20:03 -0.01802 18.29420 1632 ft 128 kts 174°
2026-05-06 20:04 -0.02710 18.29477 1755 ft 135 kts 177°
2026-05-06 20:04 -0.03677 18.29573 1848 ft 143 kts 173°
2026-05-06 20:04 -0.04696 18.29695 1942 ft 153 kts 172°
2026-05-06 20:04 -0.05750 18.29842 2144 ft 155 kts 170°
2026-05-06 20:05 -0.06831 18.29996 2329 ft 157 kts 173°
2026-05-06 20:05 -0.07922 18.30106 2530 ft 159 kts 175°
2026-05-06 20:05 -0.09031 18.30226 2655 ft 161 kts 173°
2026-05-06 20:05 -0.10127 18.30427 2825 ft 160 kts 169°
2026-05-06 20:06 -0.11206 18.30619 2976 ft 159 kts 172°
2026-05-06 20:06 -0.12268 18.30955 3073 ft 164 kts 148°
2026-05-06 20:06 -0.13007 18.31827 3174 ft 169 kts 115°
2026-05-06 20:06 -0.13448 18.32928 3295 ft 172 kts 111°
2026-05-06 20:07 -0.13850 18.34049 3458 ft 171 kts 110°
2026-05-06 20:07 -0.14267 18.35174 3593 ft 173 kts 114°
2026-05-06 20:07 -0.14746 18.36309 3628 ft 182 kts 115°
2026-05-06 20:07 -0.15284 18.37459 3693 ft 188 kts 118°
2026-05-06 20:08 -0.15829 18.38658 3812 ft 191 kts 115°
2026-05-06 20:08 -0.16349 18.39881 3959 ft 192 kts 115°
2026-05-06 20:08 -0.16873 18.41105 4150 ft 190 kts 115°
2026-05-06 20:08 -0.17392 18.42310 4344 ft 188 kts 115°
2026-05-06 20:09 -0.17907 18.43505 4520 ft 187 kts 115°
2026-05-06 20:09 -0.18418 18.44695 4706 ft 186 kts 115°
2026-05-06 20:09 -0.18928 18.45878 4856 ft 185 kts 115°
2026-05-06 20:09 -0.19435 18.47055 5019 ft 184 kts 115°
2026-05-06 20:10 -0.19939 18.48229 5169 ft 183 kts 115°
2026-05-06 20:10 -0.20436 18.49381 5318 ft 183 kts 115°
2026-05-06 20:10 -0.20937 18.50549 5462 ft 183 kts 115°
2026-05-06 20:10 -0.21274 18.51766 5556 ft 185 kts 92°
2026-05-06 20:11 -0.20941 18.53006 5642 ft 189 kts 59°
2026-05-06 20:11 -0.19987 18.53892 5736 ft 190 kts 27°
2026-05-06 20:11 -0.18711 18.54155 5850 ft 189 kts 355°
2026-05-06 20:11 -0.17418 18.54036 6008 ft 186 kts 360°
2026-05-06 20:12 -0.16133 18.54148 6133 ft 185 kts
2026-05-06 20:12 -0.14872 18.54284 6261 ft 185 kts
2026-05-06 20:12 -0.13594 18.54406 6375 ft 184 kts
2026-05-06 20:12 -0.12317 18.54532 6482 ft 184 kts
2026-05-06 20:13 -0.11043 18.54657 6591 ft 184 kts
2026-05-06 20:13 -0.09770 18.54783 6697 ft 184 kts
2026-05-06 20:13 -0.08499 18.54908 6801 ft 184 kts
2026-05-06 20:13 -0.07228 18.55034 6909 ft 183 kts
2026-05-06 20:14 -0.05961 18.55158 7012 ft 183 kts
2026-05-06 20:14 -0.04688 18.55285 7130 ft 185 kts
2026-05-06 20:14 -0.03420 18.55409 7266 ft 186 kts
2026-05-06 20:14 -0.02127 18.55538 7409 ft 187 kts
2026-05-06 20:15 -0.00828 18.55665 7556 ft 188 kts
2026-05-06 20:15 0.00474 18.55794 7702 ft 188 kts
2026-05-06 20:15 0.01778 18.55922 7851 ft 188 kts
2026-05-06 20:15 0.03084 18.56051 7999 ft 188 kts
2026-05-06 20:16 0.04387 18.56179 8146 ft 188 kts
2026-05-06 20:16 0.05689 18.56308 8286 ft 188 kts
2026-05-06 20:16 0.06973 18.56435 8428 ft 188 kts
2026-05-06 20:16 0.08271 18.56563 8566 ft 187 kts
2026-05-06 20:17 0.09568 18.56691 8704 ft 187 kts
2026-05-06 20:17 0.10864 18.56818 8835 ft 187 kts
2026-05-06 20:17 0.12156 18.56946 8967 ft 186 kts 10°
2026-05-06 20:17 0.13445 18.57073 9098 ft 186 kts 10°
2026-05-06 20:18 0.14734 18.57201 9227 ft 187 kts 10°
2026-05-06 20:18 0.16030 18.57329 9379 ft 188 kts 10°
2026-05-06 20:18 0.17330 18.57458 9519 ft 188 kts 11°
2026-05-06 20:18 0.18614 18.57583 9663 ft 188 kts 11°
2026-05-06 20:19 0.19917 18.57713 9809 ft 188 kts 11°
2026-05-06 20:19 0.21219 18.57840 9940 ft 188 kts 11°
2026-05-06 20:19 0.22521 18.57970 10068 ft 188 kts 11°
2026-05-06 20:19 0.23823 18.58097 10193 ft 188 kts 11°
2026-05-06 20:20 0.25125 18.58227 10316 ft 188 kts 11°
2026-05-06 20:20 0.26426 18.58354 10435 ft 188 kts 11°
2026-05-06 20:20 0.27733 18.58484 10560 ft 189 kts 11°
2026-05-06 20:20 0.29028 18.58611 10690 ft 190 kts 11°
2026-05-06 20:21 0.30341 18.58741 10823 ft 190 kts 10°
2026-05-06 20:21 0.31658 18.58870 10955 ft 190 kts 11°
2026-05-06 20:21 0.32976 18.59001 11082 ft 190 kts 11°
2026-05-06 20:21 0.34296 18.59131 11207 ft 191 kts 11°
2026-05-06 20:22 0.35616 18.59261 11339 ft 191 kts 10°
2026-05-06 20:22 0.36937 18.59392 11458 ft 191 kts 11°
2026-05-06 20:22 0.38257 18.59521 11578 ft 191 kts 10°
2026-05-06 20:22 0.39559 18.59651 11705 ft 191 kts 11°
2026-05-06 20:23 0.40878 18.59780 11823 ft 190 kts 10°
2026-05-06 20:23 0.42197 18.59911 11945 ft 190 kts 10°
2026-05-06 20:23 0.43516 18.60041 12050 ft 191 kts 10°
2026-05-06 20:23 0.44852 18.60174 12035 ft 194 kts 10°
2026-05-06 20:24 0.46196 18.60304 12035 ft 194 kts 10°
2026-05-06 20:24 0.47541 18.60439 12037 ft 195 kts 10°
2026-05-06 20:24 0.48892 18.60570 12040 ft 195 kts 10°
2026-05-06 20:24 0.50247 18.60706 12044 ft 196 kts 10°
2026-05-06 20:25 0.51593 18.60838 12043 ft 197 kts 10°
2026-05-06 20:25 0.52963 18.60974 12043 ft 198 kts 10°
2026-05-06 20:25 0.54338 18.61109 12041 ft 199 kts 10°
2026-05-06 20:25 0.55720 18.61246 12047 ft 200 kts 10°
2026-05-06 20:26 0.57107 18.61382 12047 ft 201 kts 10°
2026-05-06 20:26 0.58500 18.61520 12045 ft 201 kts 10°
2026-05-06 20:26 0.59897 18.61658 12044 ft 202 kts 10°
2026-05-06 20:26 0.61298 18.61797 12046 ft 203 kts 10°
2026-05-06 20:27 0.62685 18.61932 12043 ft 203 kts 10°
2026-05-06 20:27 0.64095 18.62072 12046 ft 204 kts 10°
2026-05-06 20:27 0.65508 18.62211 12042 ft 205 kts 10°
2026-05-06 20:27 0.66927 18.62352 12042 ft 205 kts 10°
2026-05-06 20:28 0.68349 18.62491 12044 ft 206 kts 10°
2026-05-06 20:28 0.69772 18.62633 12046 ft 206 kts 10°
2026-05-06 20:28 0.71201 18.62773 12044 ft 207 kts 10°
2026-05-06 20:28 0.72635 18.62915 12047 ft 207 kts 10°
2026-05-06 20:29 0.74051 18.63054 12043 ft 208 kts 10°
2026-05-06 20:29 0.75491 18.63197 12048 ft 208 kts 10°
2026-05-06 20:29 0.76930 18.63338 12050 ft 208 kts 10°
2026-05-06 20:29 0.78373 18.63482 12045 ft 208 kts 10°
2026-05-06 20:30 0.79819 18.63608 12040 ft 209 kts
2026-05-06 20:30 0.82487 18.62412 12043 ft 220 kts 323°
2026-05-06 20:30 0.83643 18.61413 12043 ft 220 kts 325°
2026-05-06 20:31 0.84837 18.60499 12047 ft 219 kts 328°
2026-05-06 20:31 0.86067 18.59598 12043 ft 220 kts 328°
2026-05-06 20:31 0.87291 18.58684 12044 ft 220 kts 327°
2026-05-06 20:31 0.88516 18.57768 12049 ft 220 kts 328°
2026-05-06 20:32 0.89745 18.56849 12047 ft 221 kts 327°
2026-05-06 20:32 0.90976 18.55930 12047 ft 221 kts 327°
2026-05-06 20:32 0.92208 18.55008 12050 ft 221 kts 327°
2026-05-06 20:32 0.93442 18.54088 12048 ft 222 kts 328°
2026-05-06 20:33 0.94660 18.53177 12045 ft 222 kts 327°
2026-05-06 20:33 0.95898 18.52253 12047 ft 222 kts 328°
2026-05-06 20:33 0.97136 18.51327 12049 ft 222 kts 327°
2026-05-06 20:33 0.98376 18.50401 12047 ft 223 kts 328°
2026-05-06 20:34 0.99617 18.49475 12049 ft 223 kts 328°
2026-05-06 20:34 1.00859 18.48546 12047 ft 223 kts 328°
2026-05-06 20:34 1.02103 18.47617 12048 ft 223 kts 327°
2026-05-06 20:34 1.03347 18.46687 12048 ft 223 kts 327°
2026-05-06 20:35 1.04592 18.45757 12049 ft 224 kts 328°
2026-05-06 20:35 1.05821 18.44839 12046 ft 224 kts 328°
2026-05-06 20:35 1.07068 18.43907 12044 ft 224 kts 328°
2026-05-06 20:35 1.08316 18.42975 12046 ft 224 kts 328°
2026-05-06 20:36 1.09564 18.42042 12046 ft 224 kts 328°
2026-05-06 20:36 1.10815 18.41108 11988 ft 227 kts 328°
2026-05-06 20:36 1.12113 18.40141 11658 ft 237 kts 327°
2026-05-06 20:36 1.13448 18.39142 11363 ft 242 kts 327°
2026-05-06 20:37 1.14792 18.38138 11095 ft 246 kts 327°
2026-05-06 20:37 1.16169 18.37107 10838 ft 249 kts 328°
2026-05-06 20:37 1.17564 18.36065 10587 ft 251 kts 328°
2026-05-06 20:37 1.18968 18.35017 10344 ft 253 kts 328°
2026-05-06 20:38 1.20377 18.33963 10107 ft 254 kts 328°
2026-05-06 20:38 1.21793 18.32905 9877 ft 255 kts 328°
2026-05-06 20:38 1.23213 18.31843 9646 ft 255 kts 328°
2026-05-06 20:38 1.24636 18.30781 9397 ft 255 kts 327°
2026-05-06 20:39 1.26059 18.29717 9160 ft 256 kts 327°
2026-05-06 20:39 1.27463 18.28668 8927 ft 256 kts 327°
2026-05-06 20:39 1.28886 18.27604 8698 ft 255 kts 327°
2026-05-06 20:39 1.30308 18.26541 8470 ft 255 kts 326°
2026-05-06 20:40 1.31731 18.25478 8253 ft 255 kts 326°
2026-05-06 20:40 1.33151 18.24417 8034 ft 255 kts 326°
2026-05-06 20:40 1.34571 18.23356 7823 ft 255 kts 326°
2026-05-06 20:40 1.35987 18.22297 7612 ft 254 kts 325°
2026-05-06 20:41 1.37404 18.21238 7405 ft 254 kts 325°
2026-05-06 20:41 1.38798 18.20196 7196 ft 254 kts 325°
2026-05-06 20:41 1.40210 18.19141 7009 ft 253 kts 324°
2026-05-06 20:41 1.41621 18.18087 6815 ft 253 kts 324°
2026-05-06 20:42 1.43030 18.17033 6624 ft 253 kts 324°
2026-05-06 20:42 1.44436 18.15982 6435 ft 252 kts 324°
2026-05-06 20:42 1.45840 18.14932 6233 ft 252 kts 323°
2026-05-06 20:42 1.47243 18.13885 6052 ft 252 kts 323°
2026-05-06 20:43 1.48643 18.12839 5851 ft 251 kts 323°
2026-05-06 20:43 1.50026 18.11803 5561 ft 254 kts 323°
2026-05-06 20:43 1.51525 18.10756 4789 ft 271 kts 331°
2026-05-06 20:43 1.53404 18.10338 3956 ft 287 kts
2026-05-06 20:44 1.55333 18.10901 3152 ft 296 kts 30°
2026-05-06 20:44 1.56701 18.12353 2961 ft 279 kts 62°
2026-05-06 20:44 1.57105 18.14154 2947 ft 259 kts 94°
2026-05-06 20:44 1.56609 18.15799 2969 ft 239 kts 112°
2026-05-06 20:45 1.56505 18.17396 2937 ft 230 kts 76°
2026-05-06 20:45 1.57377 18.18663 2946 ft 221 kts 37°
2026-05-06 20:45 1.58769 18.19095 2950 ft 212 kts 357°
2026-05-06 20:45 1.60063 18.18569 2943 ft 198 kts 315°
2026-05-06 20:46 1.60701 18.17430 2974 ft 182 kts 287°
2026-05-06 20:46 1.60997 18.16238 2968 ft 172 kts 277°
2026-05-06 20:46 1.60957 18.15090 2956 ft 160 kts 257°
2026-05-06 20:46 1.60736 18.14032 2956 ft 152 kts 257°
2026-05-06 20:47 1.60549 18.13017 2967 ft 147 kts 257°
2026-05-06 20:47 1.60351 18.12004 2836 ft 149 kts 257°
2026-05-06 20:47 1.60156 18.10996 2636 ft 153 kts 257°
2026-05-06 20:47 1.59960 18.09968 2451 ft 150 kts 257°
2026-05-06 20:48 1.59764 18.08952 2091 ft 148 kts 258°
2026-05-06 20:48 1.59574 18.07958 1697 ft 143 kts 258°
2026-05-06 20:48 1.59390 18.07002 1366 ft 134 kts 258°
2026-05-06 20:48 1.59215 18.06131 1165 ft 124 kts 256°
2026-05-06 20:49 1.59056 18.05315 1056 ft 110 kts 262°
2026-05-06 20:49 1.58963 18.04735 1058 ft 60 kts 260°
2026-05-06 20:49 1.58931 18.04497 1059 ft 6 kts 258°
2026-05-06 20:49 1.58919 18.04486 1060 ft 2 kts 152°
2026-05-06 20:50 1.58918 18.04509 1059 ft 6 kts 79°
2026-05-06 20:50 1.58930 18.04565 1059 ft 11 kts 77°
2026-05-06 20:50 1.58945 18.04657 1059 ft 16 kts 79°
2026-05-06 20:50 1.58965 18.04774 1058 ft 17 kts 79°
2026-05-06 20:51 1.58986 18.04886 1056 ft 15 kts 79°
2026-05-06 20:51 1.59003 18.04980 1055 ft 12 kts 80°
2026-05-06 20:51 1.59017 18.05048 1055 ft 8 kts 63°
2026-05-06 20:51 1.59047 18.05068 1056 ft 4 kts 11°
2026-05-06 20:52 1.59065 18.05071 1057 ft 2 kts
2026-05-06 20:52 1.59085 18.05070 1057 ft 4 kts 352°
2026-05-06 20:52 1.59118 18.05065 1058 ft 6 kts 350°
2026-05-06 20:52 1.59169 18.05055 1059 ft 7 kts 351°
2026-05-06 20:53 1.59203 18.05059 1060 ft 3 kts 25°
2026-05-06 20:53 1.59213 18.05064 1060 ft 1 kts 27°
2026-05-06 20:53 1.59228 18.05071 1060 ft 4 kts 25°
2026-05-06 20:53 1.59235 18.05075 1060 ft 0 kts 25°
2026-05-06 20:54 1.59238 18.05076 1060 ft 0 kts 24°